Airfield :
LOGIN :

Register | Disclaimer

   EN    FR    IT 

 










Legend :    VFR   Marginal VFR   IFR   Intensive IFR   Very Intensive IFR
Visi :
Ceiling :
>= 8 km
>= 3000ft
5 to 8 km
1000 to 3000 ft
1500m to 5 km
500 to 1000 ft
800 to 1500m
200 to 500 ft
< 800m
< 200 ft
Symbols :   Thunderstorms  Fog  Heavy snow  Heavy precipitations  Wind > 20 kt
SIGMETs :     Misc.  Thunderstorms  Icing  Turbulence  Mountain Waves  Volcanic Ashes







- Airport Elevation : 863 ft
- IATA code : ZAZ


LEZG - Zaragoza Aragon

CURRENT METAR :
  • 182330Z 27007KT 9999 FEW035 BKN060 BKN075 16/14 Q1014

EXPIRED METARs :
  • 182300Z 28008KT 9999 FEW035 BKN055 16/15 Q1014
  • 182230Z 28007KT 9999 FEW035 BKN055 BKN070 16/15 Q1014
  • 182200Z 27007KT 9000 FEW035 SCT060 BKN075 16/15 Q1014
  • 182130Z 28008KT 9000 -RA FEW035 SCT060 BKN080 16/15 Q1014
  • 182100Z 28008KT 9000 -RA FEW035 SCT060 BKN085 16/15 Q1014

TAF TAF LEZG
Valid from the 19 at 00:00 until the 20 at 00:00 UTC


182300Z 1900/1924 30008KT 9999 FEW050 TX22/1913Z TN14/1906Z
PROB40
TEMPO 1902/1924 4000 SHRA SCT022 FEW025TCU
BECMG 1914/1917 09007KT
No reported NOTAMs for that airfield.



MET'MAP, your aeronautical weather chart ! - Copyright ORBIFLY December 2007 - Disclaimer

ORBIFLY MET'MAP TEAM :

Programming & Development : Alexandra Zaïnal
Concept & Development : Baudouin d'Aumeries
Co-Development & Prog : Marc-Olivier Méhu
Technical & hardware support : Manuel Goepfert

Contact : metmap@orbifly.com




SOURCES & CREDITS :

   NOAA